Site contains unofficial IBTrACS data. Visit the IBTrACS Website to access archived data.

1885 NOT_NAMED (1885192N07135)


IBTrACS version v04r00. Visit IBTrACS website for data access.
Please direct all questions to the IBTrACS Q and A forum

Storm track - Intensity - Wind Radii - Intensity Data - Source Data - All data

Summary Information

Storm ID 1885192N07135
Start Jul 10 16Z
Landfall Jul 19 03Z
End Jul 19 04Z
ATCF IDs
Track status Best track data.

Storm track plot

Map of storm track

Intensity plots

No Intensity information for this storm


Radial wind information

No radial wind information for this storm


Position and Intensity Table

BASIN ISO_TIME_________ NATURE LAT LON
degrees north degrees east
WP 1885-07-10 16:00:00 NR 7.30 134.90
WP 18:00:00 NR 7.45 134.71
WP 21:00:00 NR 7.67 134.43
WP 1885-07-11 00:00:00 NR 7.87 134.18
WP 03:00:00 NR 8.05 133.96
WP 04:00:00 NR 8.10 133.90
WP 06:00:00 NR 8.20 133.79
WP 09:00:00 NR 8.32 133.66
WP 12:00:00 NR 8.43 133.56
WP 15:00:00 NR 8.56 133.44
WP 16:00:00 NR 8.60 133.40
WP 18:00:00 NR 8.71 133.29
WP 21:00:00 NR 8.88 133.12
WP 1885-07-12 00:00:00 NR 9.06 132.94
WP 03:00:00 NR 9.24 132.76
WP 04:00:00 NR 9.30 132.70
WP 06:00:00 NR 9.42 132.58
WP 09:00:00 NR 9.59 132.40
WP 12:00:00 NR 9.77 132.23
WP 15:00:00 NR 9.94 132.05
WP 16:00:00 NR 10.00 132.00
WP 18:00:00 NR 10.11 131.90
WP 21:00:00 NR 10.28 131.77
WP 1885-07-13 00:00:00 NR 10.45 131.63
WP 03:00:00 NR 10.63 131.46
WP 04:00:00 NR 10.70 131.40
WP 06:00:00 NR 10.84 131.26
WP 09:00:00 NR 11.05 131.02
WP 12:00:00 NR 11.28 130.76
WP 15:00:00 NR 11.52 130.49
WP 16:00:00 NR 11.60 130.40
WP 18:00:00 NR 11.76 130.23
WP 21:00:00 NR 12.00 129.98
WP 1885-07-14 00:00:00 NR 12.25 129.73
WP 03:00:00 NR 12.51 129.48
WP 04:00:00 NR 12.60 129.40
WP 06:00:00 NR 12.78 129.24
WP 09:00:00 NR 13.05 129.01
WP 12:00:00 NR 13.33 128.79
WP 15:00:00 NR 13.61 128.57
WP 16:00:00 NR 13.70 128.50
WP 18:00:00 NR 13.87 128.37
WP 21:00:00 NR 14.13 128.18
WP 1885-07-15 00:00:00 NR 14.39 127.98
WP 03:00:00 NR 14.69 127.78
WP 04:00:00 NR 14.80 127.70
WP 06:00:00 NR 15.04 127.53
WP 09:00:00 NR 15.43 127.26
WP 12:00:00 NR 15.84 126.98
WP 15:00:00 NR 16.26 126.69
WP 16:00:00 NR 16.40 126.60
WP 18:00:00 NR 16.67 126.42
WP 21:00:00 NR 17.08 126.17
WP 1885-07-16 00:00:00 NR 17.48 125.92
WP 03:00:00 NR 17.87 125.68
WP 04:00:00 NR 18.00 125.60
WP 06:00:00 NR 18.23 125.44
WP 09:00:00 NR 18.56 125.21
WP 12:00:00 NR 18.90 124.99
WP 15:00:00 NR 19.27 124.77
WP 16:00:00 NR 19.40 124.70
WP 18:00:00 NR 19.72 124.56
WP 21:00:00 NR 20.24 124.35
WP 1885-07-17 00:00:00 NR 20.76 124.15
WP 03:00:00 NR 21.25 123.96
WP 04:00:00 NR 21.40 123.90
WP 06:00:00 NR 21.64 123.79
WP 09:00:00 NR 21.95 123.65
WP 12:00:00 NR 22.23 123.50
WP 15:00:00 NR 22.50 123.35
WP 16:00:00 NR 22.60 123.30
WP 18:00:00 NR 22.81 123.18
WP 21:00:00 NR 23.13 122.99
WP 1885-07-18 00:00:00 NR 23.48 122.78
WP 03:00:00 NR 23.86 122.57
WP 04:00:00 NR 24.00 122.50
WP 06:00:00 NR 24.29 122.36
WP 09:00:00 NR 24.75 122.15
WP 12:00:00 NR 25.26 121.93
WP 15:00:00 NR 25.81 121.69
WP 16:00:00 NR 26.00 121.60
WP 18:00:00 NR 26.39 121.42
WP 21:00:00 NR 27.01 121.13
WP 1885-07-19 00:00:00 NR 27.64 120.83
WP 03:00:00 NR 28.28 120.51
WP 04:00:00 NR 28.50 120.40

Source Information

Agency Information
USA
TOKYO
CMA
HKO
NEWDELHI
REUNION
BOM
NADI
WELLINGTON
DS824
TD9636 cons_worldwide_trop_cyclone_18710101-19891231-003:Line=154
TD9635
NEUMANN
MLC

All available IBTrACS Data

SEASON BASIN SUBBASIN ISO_TIME_________ NATURE LAT LON DIST2LAND LANDFALL IFLAG USA SSHS TD9636 LAT TD9636 LON TD9636 STAGE STORM SPEED STORM DIR
Year degrees north degrees east km km 1 degrees north degrees east kts degrees
1885 WP MM 1885-07-10 16:00:00 NR 7.30 134.90 872 862 __________O___ -1 7.30 134.90 7 7 308
1885 WP MM 18:00:00 NR 7.45 134.71 862 859 __________P___ -1 7.45 134.71 7 7 308
1885 WP MM 21:00:00 NR 7.67 134.43 859 838 __________P___ -1 7.67 134.43 7 7 309
1885 WP MM 1885-07-11 00:00:00 NR 7.87 134.18 838 816 __________P___ -1 7.87 134.18 7 6 309
1885 WP MM 03:00:00 NR 8.05 133.96 816 806 __________P___ -1 8.05 133.96 7 5 310
1885 WP MM 04:00:00 NR 8.10 133.90 806 794 __________O___ -1 8.10 133.90 7 4 311
1885 WP MM 06:00:00 NR 8.20 133.79 795 784 __________P___ -1 8.20 133.79 7 4 313
1885 WP MM 09:00:00 NR 8.32 133.66 785 774 __________P___ -1 8.32 133.66 7 3 316
1885 WP MM 12:00:00 NR 8.43 133.56 775 754 __________P___ -1 8.43 133.56 7 3 317
1885 WP MM 15:00:00 NR 8.56 133.44 755 755 __________P___ -1 8.56 133.44 7 3 317
1885 WP MM 16:00:00 NR 8.60 133.40 755 746 __________O___ -1 8.60 133.40 7 4 316
1885 WP MM 18:00:00 NR 8.71 133.29 746 728 __________P___ -1 8.71 133.29 7 5 315
1885 WP MM 21:00:00 NR 8.88 133.12 728 711 __________P___ -1 8.88 133.12 7 5 315
1885 WP MM 1885-07-12 00:00:00 NR 9.06 132.94 711 702 __________P___ -1 9.06 132.94 7 5 315
1885 WP MM 03:00:00 NR 9.24 132.76 702 694 __________P___ -1 9.24 132.76 7 5 315
1885 WP MM 04:00:00 NR 9.30 132.70 694 687 __________O___ -1 9.30 132.70 7 5 315
1885 WP MM 06:00:00 NR 9.42 132.58 687 672 __________P___ -1 9.42 132.58 7 5 315
1885 WP MM 09:00:00 NR 9.59 132.40 672 655 __________P___ -1 9.59 132.40 7 5 315
1885 WP MM 12:00:00 NR 9.77 132.23 657 646 __________P___ -1 9.77 132.23 7 5 316
1885 WP MM 15:00:00 NR 9.94 132.05 648 640 __________P___ -1 9.94 132.05 7 5 317
1885 WP MM 16:00:00 NR 10.00 132.00 640 631 __________O___ -1 10.00 132.00 7 5 319
1885 WP MM 18:00:00 NR 10.11 131.90 631 623 __________P___ -1 10.11 131.90 7 4 321
1885 WP MM 21:00:00 NR 10.28 131.77 626 607 __________P___ -1 10.28 131.77 7 4 321
1885 WP MM 1885-07-13 00:00:00 NR 10.45 131.63 609 599 __________P___ -1 10.45 131.63 7 5 320
1885 WP MM 03:00:00 NR 10.63 131.46 601 594 __________P___ -1 10.63 131.46 7 5 318
1885 WP MM 04:00:00 NR 10.70 131.40 594 586 __________O___ -1 10.70 131.40 7 6 315
1885 WP MM 06:00:00 NR 10.84 131.26 586 563 __________P___ -1 10.84 131.26 7 6 313
1885 WP MM 09:00:00 NR 11.05 131.02 567 546 __________P___ -1 11.05 131.02 7 7 312
1885 WP MM 12:00:00 NR 11.28 130.76 546 515 __________P___ -1 11.28 130.76 7 7 312
1885 WP MM 15:00:00 NR 11.52 130.49 515 506 __________P___ -1 11.52 130.49 7 7 313
1885 WP MM 16:00:00 NR 11.60 130.40 506 486 __________O___ -1 11.60 130.40 7 7 313
1885 WP MM 18:00:00 NR 11.76 130.23 488 469 __________P___ -1 11.76 130.23 7 7 314
1885 WP MM 21:00:00 NR 12.00 129.98 471 445 __________P___ -1 12.00 129.98 7 7 315
1885 WP MM 1885-07-14 00:00:00 NR 12.25 129.73 449 432 __________P___ -1 12.25 129.73 7 7 316
1885 WP MM 03:00:00 NR 12.51 129.48 436 426 __________P___ -1 12.51 129.48 7 7 318
1885 WP MM 04:00:00 NR 12.60 129.40 426 407 __________O___ -1 12.60 129.40 7 7 319
1885 WP MM 06:00:00 NR 12.78 129.24 407 390 __________P___ -1 12.78 129.24 7 7 320
1885 WP MM 09:00:00 NR 13.05 129.01 393 378 __________P___ -1 13.05 129.01 7 7 321
1885 WP MM 12:00:00 NR 13.33 128.79 378 366 __________P___ -1 13.33 128.79 7 7 322
1885 WP MM 15:00:00 NR 13.61 128.57 370 361 __________P___ -1 13.61 128.57 7 7 323
1885 WP MM 16:00:00 NR 13.70 128.50 366 361 __________O___ -1 13.70 128.50 7 7 323
1885 WP MM 18:00:00 NR 13.87 128.37 367 355 __________P___ -1 13.87 128.37 7 6 324
1885 WP MM 21:00:00 NR 14.13 128.18 361 358 __________P___ -1 14.13 128.18 7 6 325
1885 WP MM 1885-07-15 00:00:00 NR 14.39 127.98 365 365 __________P___ -1 14.39 127.98 7 7 325
1885 WP MM 03:00:00 NR 14.69 127.78 373 365 __________P___ -1 14.69 127.78 7 7 326
1885 WP MM 04:00:00 NR 14.80 127.70 369 355 __________O___ -1 14.80 127.70 7 8 326
1885 WP MM 06:00:00 NR 15.04 127.53 355 349 __________P___ -1 15.04 127.53 7 9 326
1885 WP MM 09:00:00 NR 15.43 127.26 354 344 __________P___ -1 15.43 127.26 7 10 326
1885 WP MM 12:00:00 NR 15.84 126.98 351 348 __________P___ -1 15.84 126.98 7 10 327
1885 WP MM 15:00:00 NR 16.26 126.69 364 356 __________P___ -1 16.26 126.69 7 10 327
1885 WP MM 16:00:00 NR 16.40 126.60 364 364 __________O___ -1 16.40 126.60 7 10 328
1885 WP MM 18:00:00 NR 16.67 126.42 376 376 __________P___ -1 16.67 126.42 7 10 329
1885 WP MM 21:00:00 NR 17.08 126.17 393 363 __________P___ -1 17.08 126.17 7 9 329
1885 WP MM 1885-07-16 00:00:00 NR 17.48 125.92 365 351 __________P___ -1 17.48 125.92 7 9 330
1885 WP MM 03:00:00 NR 17.87 125.68 354 343 __________P___ -1 17.87 125.68 7 9 330
1885 WP MM 04:00:00 NR 18.00 125.60 347 327 __________O___ -1 18.00 125.60 7 8 327
1885 WP MM 06:00:00 NR 18.23 125.44 327 306 __________P___ -1 18.23 125.44 7 8 326
1885 WP MM 09:00:00 NR 18.56 125.21 306 288 __________P___ -1 18.56 125.21 7 8 327
1885 WP MM 12:00:00 NR 18.90 124.99 289 274 __________P___ -1 18.90 124.99 7 8 330
1885 WP MM 15:00:00 NR 19.27 124.77 281 271 __________P___ -1 19.27 124.77 7 9 332
1885 WP MM 16:00:00 NR 19.40 124.70 276 271 __________O___ -1 19.40 124.70 7 10 336
1885 WP MM 18:00:00 NR 19.72 124.56 282 273 __________P___ -1 19.72 124.56 7 11 338
1885 WP MM 21:00:00 NR 20.24 124.35 290 298 __________P___ -1 20.24 124.35 7 11 340
1885 WP MM 1885-07-17 00:00:00 NR 20.76 124.15 328 327 __________P___ -1 20.76 124.15 7 11 340
1885 WP MM 03:00:00 NR 21.25 123.96 327 314 __________P___ -1 21.25 123.96 7 10 340
1885 WP MM 04:00:00 NR 21.40 123.90 314 298 __________O___ -1 21.40 123.90 3 8 338
1885 WP MM 06:00:00 NR 21.64 123.79 298 257 __________P___ -1 21.64 123.79 3 7 337
1885 WP MM 09:00:00 NR 21.95 123.65 257 237 __________P___ -1 21.95 123.65 3 6 335
1885 WP MM 12:00:00 NR 22.23 123.50 237 215 __________P___ -1 22.23 123.50 3 6 334
1885 WP MM 15:00:00 NR 22.50 123.35 215 202 __________P___ -1 22.50 123.35 3 6 333
1885 WP MM 16:00:00 NR 22.60 123.30 202 187 __________O___ -1 22.60 123.30 4 7 332
1885 WP MM 18:00:00 NR 22.81 123.18 187 163 __________P___ -1 22.81 123.18 4 7 331
1885 WP MM 21:00:00 NR 23.13 122.99 163 134 __________P___ -1 23.13 122.99 4 8 331
1885 WP MM 1885-07-18 00:00:00 NR 23.48 122.78 134 97 __________P___ -1 23.48 122.78 4 8 333
1885 WP MM 03:00:00 NR 23.86 122.57 97 82 __________P___ -1 23.86 122.57 4 9 334
1885 WP MM 04:00:00 NR 24.00 122.50 82 55 __________O___ -1 24.00 122.50 4 9 336
1885 WP MM 06:00:00 NR 24.29 122.36 55 30 __________P___ -1 24.29 122.36 4 10 337
1885 WP MM 09:00:00 NR 24.75 122.15 30 0 __________P___ -1 24.75 122.15 4 11 338
1885 WP MM 12:00:00 NR 25.26 121.93 30 30 __________P___ -1 25.26 121.93 4 11 338
1885 WP MM 15:00:00 NR 25.81 121.69 67 67 __________P___ -1 25.81 121.69 4 12 338
1885 WP MM 16:00:00 NR 26.00 121.60 89 89 __________O___ -1 26.00 121.60 4 13 338
1885 WP MM 18:00:00 NR 26.39 121.42 126 63 __________P___ -1 26.39 121.42 4 13 337
1885 WP MM 21:00:00 NR 27.01 121.13 63 9 __________P___ -1 27.01 121.13 4 14 337
1885 WP MM 1885-07-19 00:00:00 NR 27.64 120.83 9 0 __________P___ -1 27.64 120.83 4 14 337
1885 WP MM 03:00:00 NR 28.28 120.51 0 0 __________P___ -1 28.28 120.51 4 14 336
1885 WP MM 04:00:00 NR 28.50 120.40 0 __________O___ -1 28.50 120.40 7 14 335